Time;durP1;ratioP1;P1;durP2;ratioP2;P2;SDS_P1;SDS_P2;PMS_P1;PMS_P2;Temp;Humidity;BMP_temperature;BMP_pressure;BME280_temperature;BME280_humidity;BME280_pressure;Samples;Min_cycle;Max_cycle;Signal;HPM_P1;HPM_P2
2022/11/07 00:01:59;;;;;;;;;;;14.50;99.90;;;;;;5059185;28;20330;-60
2022/11/07 00:04:28;;;;;;;;;;;14.50;99.90;;;;;;5058931;28;19916;-60
2022/11/07 00:06:54;;;;;;;;;;;14.50;99.90;;;;;;5058878;28;19913;-60
2022/11/07 00:09:19;;;;;;;;;;;14.50;99.90;;;;;;5058461;28;20296;-60
2022/11/07 00:11:45;;;;;;;;;;;14.50;99.90;;;;;;5058563;28;19909;-60
2022/11/07 00:14:12;;;;;;;;;;;14.50;99.90;;;;;;5058871;28;19963;-60
2022/11/07 00:16:37;;;;;;;;;;;14.60;99.90;;;;;;5058992;28;20349;-60
2022/11/07 00:19:03;;;;;;;;;;;14.60;99.90;;;;;;5058747;28;19982;-60
2022/11/07 00:21:28;;;;;;;;;;;14.60;99.90;;;;;;5058515;28;19909;-60
2022/11/07 00:23:54;;;;;;;;;;;14.60;99.90;;;;;;5058525;28;19909;-60
2022/11/07 00:26:20;;;;;;;;;;;14.70;99.90;;;;;;5058323;28;19913;-60
2022/11/07 00:28:45;;;;;;;;;;;14.70;99.90;;;;;;5058258;28;19958;-60
2022/11/07 00:31:11;;;;;;;;;;;14.70;99.90;;;;;;5058282;28;19916;-60
2022/11/07 00:33:37;;;;;;;;;;;14.70;99.90;;;;;;5058435;28;20372;-60
2022/11/07 00:36:03;;;;;;;;;;;14.70;99.90;;;;;;5058230;28;19978;-60
2022/11/07 00:38:29;;;;;;;;;;;14.70;99.90;;;;;;5058297;28;19908;-60
2022/11/07 00:41:02;;;;;;;;;;;14.70;99.90;;;;;;5058340;28;19955;-60
2022/11/07 00:43:28;;;;;;;;;;;14.70;99.90;;;;;;5058307;28;19909;-60
2022/11/07 00:45:53;;;;;;;;;;;14.80;99.90;;;;;;5058122;28;19919;-60
2022/11/07 00:48:19;;;;;;;;;;;14.80;99.90;;;;;;5058098;28;19909;-60
2022/11/07 00:50:44;;;;;;;;;;;14.80;99.90;;;;;;5058168;28;19960;-60
2022/11/07 00:53:10;;;;;;;;;;;14.80;99.90;;;;;;5058067;28;20437;-60
2022/11/07 00:55:36;;;;;;;;;;;14.80;99.90;;;;;;5058574;28;19980;-60
2022/11/07 00:58:01;;;;;;;;;;;14.90;99.90;;;;;;5057769;28;20383;-60
2022/11/07 01:00:27;;;;;;;;;;;14.80;99.90;;;;;;5057993;28;19909;-60
2022/11/07 01:05:38;;;;;;;;;;;14.90;99.90;;;;;;5057840;28;19959;-60
2022/11/07 01:08:04;;;;;;;;;;;14.90;99.90;;;;;;5057256;28;19909;-60
2022/11/07 01:10:29;;;;;;;;;;;14.90;99.90;;;;;;5057783;28;20003;-60
2022/11/07 01:12:55;;;;;;;;;;;14.90;99.90;;;;;;5057902;28;20003;-60
2022/11/07 01:15:20;;;;;;;;;;;14.90;99.90;;;;;;5057684;28;19917;-60
2022/11/07 01:17:46;;;;;;;;;;;14.90;99.90;;;;;;5057631;28;19961;-60
2022/11/07 01:20:12;;;;;;;;;;;14.90;99.90;;;;;;5058108;28;19909;-60
2022/11/07 01:22:37;;;;;;;;;;;14.90;99.90;;;;;;5057567;28;19913;-60
2022/11/07 01:25:03;;;;;;;;;;;14.80;99.90;;;;;;5057538;28;19935;-60
2022/11/07 01:27:29;;;;;;;;;;;14.80;99.90;;;;;;5057685;28;19909;-60
2022/11/07 01:29:54;;;;;;;;;;;14.80;99.90;;;;;;5057666;28;19909;-60
2022/11/07 01:32:20;;;;;;;;;;;14.80;99.90;;;;;;5057474;28;19963;-60
2022/11/07 01:34:46;;;;;;;;;;;14.80;99.90;;;;;;5057907;28;19916;-60
2022/11/07 01:37:11;;;;;;;;;;;14.90;99.90;;;;;;5057613;28;19908;-60
2022/11/07 01:39:37;;;;;;;;;;;14.90;99.90;;;;;;5057427;28;19908;-60
2022/11/07 01:42:03;;;;;;;;;;;14.90;99.90;;;;;;5057498;28;20368;-60
2022/11/07 01:44:31;;;;;;;;;;;14.90;99.90;;;;;;5057823;28;20347;-60
2022/11/07 01:46:58;;;;;;;;;;;14.90;99.90;;;;;;5057519;28;19917;-60
2022/11/07 01:49:35;;;;;;;;;;;14.90;99.90;;;;;;5057314;28;20276;-60
2022/11/07 01:52:03;;;;;;;;;;;14.90;99.90;;;;;;5057364;28;19908;-59
2022/11/07 01:54:36;;;;;;;;;;;14.90;99.90;;;;;;5057443;28;19912;-60
2022/11/07 01:57:04;;;;;;;;;;;14.90;99.90;;;;;;5057397;28;19909;-60
2022/11/07 01:59:31;;;;;;;;;;;14.90;99.90;;;;;;5057383;28;19908;-60
2022/11/07 02:01:57;;;;;;;;;;;14.90;99.90;;;;;;5057177;28;20007;-60
2022/11/07 02:04:24;;;;;;;;;;;15.00;99.90;;;;;;5057162;28;19908;-60
2022/11/07 02:06:56;;;;;;;;;;;15.00;99.90;;;;;;5057556;28;19962;-60
2022/11/07 02:09:21;;;;;;;;;;;15.00;99.90;;;;;;5057090;28;19921;-60
2022/11/07 02:11:47;;;;;;;;;;;15.00;99.90;;;;;;5057354;28;20317;-60
2022/11/07 02:14:16;;;;;;;;;;;15.00;99.90;;;;;;5057542;28;19916;-60
2022/11/07 02:16:42;;;;;;;;;;;15.00;99.90;;;;;;5057100;28;19909;-60
2022/11/07 02:19:11;;;;;;;;;;;15.00;99.90;;;;;;5058435;28;19933;-60
2022/11/07 02:21:47;;;;;;;;;;;15.00;99.90;;;;;;5060706;28;19916;-60
2022/11/07 02:24:22;;;;;;;;;;;15.10;99.90;;;;;;5060570;28;19909;-60
2022/11/07 02:26:48;;;;;;;;;;;15.10;99.90;;;;;;5060742;28;19913;-60
2022/11/07 02:29:13;;;;;;;;;;;15.10;99.90;;;;;;5060480;28;19916;-60
2022/11/07 02:31:39;;;;;;;;;;;15.10;99.90;;;;;;5060712;28;19916;-60
2022/11/07 02:34:05;;;;;;;;;;;15.10;99.90;;;;;;5060434;28;19909;-60
2022/11/07 02:36:30;;;;;;;;;;;15.10;99.90;;;;;;5060677;28;19909;-60
2022/11/07 02:38:57;;;;;;;;;;;15.10;99.90;;;;;;5060750;28;20345;-60
2022/11/07 02:41:25;;;;;;;;;;;15.10;99.90;;;;;;5060666;28;19909;-60
2022/11/07 02:43:53;;;;;;;;;;;15.20;99.90;;;;;;5060621;28;19909;-60
2022/11/07 02:46:21;;;;;;;;;;;15.10;99.90;;;;;;5060159;28;19912;-60
2022/11/07 02:48:48;;;;;;;;;;;15.10;99.90;;;;;;5060580;28;19916;-60
2022/11/07 02:51:14;;;;;;;;;;;15.10;99.90;;;;;;5060132;28;19972;-59
2022/11/07 02:53:39;;;;;;;;;;;15.10;99.90;;;;;;5060073;28;20412;-60
2022/11/07 02:56:05;;;;;;;;;;;15.10;99.90;;;;;;5060293;28;19916;-60
2022/11/07 02:58:31;;;;;;;;;;;15.00;99.90;;;;;;5060363;28;19908;-60
2022/11/07 03:01:01;;;;;;;;;;;15.00;99.90;;;;;;5059950;28;19942;-60
2022/11/07 03:03:28;;;;;;;;;;;15.00;99.90;;;;;;5060103;28;19908;-60
2022/11/07 03:05:54;;;;;;;;;;;15.00;99.90;;;;;;5059885;28;19917;-60
2022/11/07 03:08:19;;;;;;;;;;;15.00;99.90;;;;;;5059642;28;20388;-60
2022/11/07 03:10:45;;;;;;;;;;;15.00;99.90;;;;;;5059935;28;19909;-60
2022/11/07 03:13:10;;;;;;;;;;;15.00;99.90;;;;;;5059805;28;19944;-60
2022/11/07 03:15:36;;;;;;;;;;;15.00;99.90;;;;;;5060238;28;19938;-60
2022/11/07 03:18:02;;;;;;;;;;;15.00;99.90;;;;;;5059851;28;19916;-60
2022/11/07 03:20:27;;;;;;;;;;;15.00;99.90;;;;;;5059542;28;19916;-60
2022/11/07 03:22:53;;;;;;;;;;;15.00;99.90;;;;;;5060091;28;20391;-60
2022/11/07 03:25:18;;;;;;;;;;;15.00;99.90;;;;;;5059612;28;19913;-60
2022/11/07 03:27:45;;;;;;;;;;;15.00;99.90;;;;;;5059772;28;19915;-60
2022/11/07 03:30:11;;;;;;;;;;;15.00;99.90;;;;;;5059207;28;20373;-60
2022/11/07 03:32:36;;;;;;;;;;;15.00;99.90;;;;;;5059350;28;19931;-60
2022/11/07 03:35:02;;;;;;;;;;;15.00;99.90;;;;;;5059427;28;19944;-60
2022/11/07 03:37:27;;;;;;;;;;;15.00;99.90;;;;;;5059709;28;19931;-60
2022/11/07 03:39:53;;;;;;;;;;;15.00;99.90;;;;;;5059365;28;19916;-60
2022/11/07 03:42:18;;;;;;;;;;;15.00;99.90;;;;;;5059097;28;19915;-60
2022/11/07 03:44:44;;;;;;;;;;;15.00;99.90;;;;;;5059192;28;20023;-60
2022/11/07 03:47:10;;;;;;;;;;;15.00;99.90;;;;;;5059224;28;19916;-60
2022/11/07 03:49:35;;;;;;;;;;;15.00;99.90;;;;;;5059159;28;19912;-60
2022/11/07 03:52:01;;;;;;;;;;;15.00;99.90;;;;;;5059343;28;19909;-60
2022/11/07 03:54:26;;;;;;;;;;;15.00;99.90;;;;;;5058934;28;19948;-60
2022/11/07 03:56:52;;;;;;;;;;;15.00;99.90;;;;;;5058835;28;19909;-60
2022/11/07 03:59:18;;;;;;;;;;;15.00;99.90;;;;;;5059067;28;19919;-60
2022/11/07 04:01:44;;;;;;;;;;;15.00;99.90;;;;;;5058758;28;19916;-60
2022/11/07 04:04:10;;;;;;;;;;;15.10;99.90;;;;;;5058753;28;19916;-60
2022/11/07 04:06:35;;;;;;;;;;;15.10;99.90;;;;;;5058859;28;20353;-60
2022/11/07 04:09:01;;;;;;;;;;;15.10;99.90;;;;;;5058491;28;20398;-60
2022/11/07 04:19:39;;;;;;;;;;;15.10;99.90;;;;;;5058515;28;20379;-60
2022/11/07 04:22:04;;;;;;;;;;;15.10;99.90;;;;;;5058582;28;19909;-60
2022/11/07 04:24:30;;;;;;;;;;;15.20;99.90;;;;;;5058408;28;20372;-60
2022/11/07 04:29:39;;;;;;;;;;;15.20;99.90;;;;;;5058290;28;19916;-60
2022/11/07 04:32:05;;;;;;;;;;;15.20;99.90;;;;;;5058157;28;19909;-60
2022/11/07 04:34:31;;;;;;;;;;;15.20;99.90;;;;;;5057997;28;19908;-60
2022/11/07 04:36:56;;;;;;;;;;;15.20;99.90;;;;;;5058170;28;19913;-60
2022/11/07 04:39:22;;;;;;;;;;;15.20;99.90;;;;;;5057941;28;19909;-60
2022/11/07 04:41:48;;;;;;;;;;;15.20;99.90;;;;;;5057801;28;19995;-60
2022/11/07 04:44:13;;;;;;;;;;;15.20;99.90;;;;;;5058457;28;19909;-60
2022/11/07 04:46:39;;;;;;;;;;;15.20;99.90;;;;;;5058112;28;19913;-60
2022/11/07 04:49:04;;;;;;;;;;;15.10;99.90;;;;;;5058178;28;19992;-60
2022/11/07 04:51:30;;;;;;;;;;;15.00;99.90;;;;;;5057922;28;19908;-60
2022/11/07 04:53:56;;;;;;;;;;;15.10;99.90;;;;;;5058368;28;20256;-60
2022/11/07 04:56:21;;;;;;;;;;;15.00;99.90;;;;;;5058029;28;19992;-60
2022/11/07 04:58:47;;;;;;;;;;;15.00;99.90;;;;;;5057410;28;19944;-60
2022/11/07 05:01:12;;;;;;;;;;;15.00;99.90;;;;;;5057714;28;19959;-60
2022/11/07 05:03:38;;;;;;;;;;;15.00;99.90;;;;;;5057701;28;20368;-59
2022/11/07 05:06:04;;;;;;;;;;;14.90;99.90;;;;;;5057720;28;19912;-60
2022/11/07 05:08:30;;;;;;;;;;;14.90;99.90;;;;;;5057725;28;19923;-60
2022/11/07 05:10:55;;;;;;;;;;;14.90;99.90;;;;;;5057460;28;19916;-60
2022/11/07 05:13:21;;;;;;;;;;;14.90;99.90;;;;;;5057605;28;19909;-60
2022/11/07 05:15:47;;;;;;;;;;;14.90;99.90;;;;;;5057598;28;19952;-60
2022/11/07 05:18:13;;;;;;;;;;;14.90;99.90;;;;;;5057699;28;19909;-60
2022/11/07 05:20:38;;;;;;;;;;;14.90;99.90;;;;;;5057596;28;20007;-60
2022/11/07 05:23:20;;;;;;;;;;;14.90;99.90;;;;;;5058019;28;19908;-60
2022/11/07 05:25:48;;;;;;;;;;;15.00;99.90;;;;;;5057271;28;20003;-60
2022/11/07 05:28:32;;;;;;;;;;;15.00;99.90;;;;;;5057662;28;19909;-60
2022/11/07 05:30:59;;;;;;;;;;;15.00;99.90;;;;;;5057674;28;19955;-60
2022/11/07 05:33:24;;;;;;;;;;;15.00;99.90;;;;;;5057566;28;19909;-60
2022/11/07 05:35:50;;;;;;;;;;;15.00;99.90;;;;;;5057643;28;19915;-60
2022/11/07 05:38:16;;;;;;;;;;;15.10;99.90;;;;;;5057419;28;19916;-60
2022/11/07 05:40:42;;;;;;;;;;;15.00;99.90;;;;;;5057485;28;19991;-60
2022/11/07 05:43:14;;;;;;;;;;;15.00;99.90;;;;;;5057016;28;19916;-60
2022/11/07 05:45:40;;;;;;;;;;;14.70;99.90;;;;;;5057251;28;19913;-60
2022/11/07 05:48:07;;;;;;;;;;;14.40;99.90;;;;;;5057181;28;19909;-60
2022/11/07 05:50:32;;;;;;;;;;;14.30;99.90;;;;;;5057358;28;19979;-60
2022/11/07 05:52:58;;;;;;;;;;;14.20;99.90;;;;;;5057618;28;19913;-60
2022/11/07 05:55:24;;;;;;;;;;;14.20;99.90;;;;;;5060998;28;20264;-60
2022/11/07 05:57:50;;;;;;;;;;;14.10;99.90;;;;;;5061045;28;19913;-60
2022/11/07 06:00:16;;;;;;;;;;;14.00;99.90;;;;;;5061443;28;19909;-60
2022/11/07 06:02:41;;;;;;;;;;;13.80;99.90;;;;;;5060915;28;19915;-60
2022/11/07 06:05:07;;;;;;;;;;;13.80;99.90;;;;;;5061214;28;19913;-60
2022/11/07 06:07:34;;;;;;;;;;;13.90;99.90;;;;;;5059471;28;19912;-60
2022/11/07 06:09:59;;;;;;;;;;;13.90;99.90;;;;;;5060510;28;19921;-60
2022/11/07 06:12:25;;;;;;;;;;;14.00;99.90;;;;;;5060901;28;19909;-59
2022/11/07 06:14:51;;;;;;;;;;;14.10;99.90;;;;;;5060781;28;19908;-59
2022/11/07 06:17:16;;;;;;;;;;;14.10;99.90;;;;;;5060952;28;20368;-60
2022/11/07 06:19:42;;;;;;;;;;;14.20;99.90;;;;;;5060407;28;19912;-60
2022/11/07 06:22:07;;;;;;;;;;;14.20;99.90;;;;;;5061061;28;20344;-60
2022/11/07 06:24:33;;;;;;;;;;;14.30;99.90;;;;;;5060626;28;19915;-60
2022/11/07 06:26:59;;;;;;;;;;;14.40;99.90;;;;;;5060805;28;20310;-60
2022/11/07 06:29:24;;;;;;;;;;;14.40;99.90;;;;;;5060532;28;19908;-60
2022/11/07 06:31:50;;;;;;;;;;;14.50;99.90;;;;;;5060479;28;19909;-60
2022/11/07 06:34:15;;;;;;;;;;;14.60;99.90;;;;;;5060288;28;19976;-60
2022/11/07 06:36:41;;;;;;;;;;;14.60;99.90;;;;;;5060352;28;19916;-59
2022/11/07 06:39:07;;;;;;;;;;;14.60;99.90;;;;;;5060485;28;19932;-60
2022/11/07 06:41:32;;;;;;;;;;;14.70;99.90;;;;;;5060462;28;19908;-60
2022/11/07 06:43:58;;;;;;;;;;;14.70;99.90;;;;;;5060385;28;19917;-60
2022/11/07 06:46:24;;;;;;;;;;;14.70;99.90;;;;;;5060546;28;19974;-60
2022/11/07 06:48:49;;;;;;;;;;;14.70;99.90;;;;;;5060579;28;19909;-60
2022/11/07 06:51:15;;;;;;;;;;;14.70;99.90;;;;;;5060055;28;19909;-60
2022/11/07 06:53:41;;;;;;;;;;;14.80;99.90;;;;;;5059911;28;19916;-60
2022/11/07 06:56:07;;;;;;;;;;;14.80;99.90;;;;;;5059932;28;20322;-60
2022/11/07 06:58:33;;;;;;;;;;;14.80;99.90;;;;;;5060310;28;19909;-60
2022/11/07 07:01:02;;;;;;;;;;;14.80;99.90;;;;;;5060098;28;19976;-59
2022/11/07 07:03:28;;;;;;;;;;;14.80;99.90;;;;;;5059666;28;20474;-60
2022/11/07 07:05:54;;;;;;;;;;;14.80;99.90;;;;;;5059688;28;19953;-59
2022/11/07 07:08:20;;;;;;;;;;;14.80;99.90;;;;;;5059832;28;20346;-60
2022/11/07 07:10:46;;;;;;;;;;;14.80;99.90;;;;;;5059689;28;19909;-60
2022/11/07 07:13:12;;;;;;;;;;;14.80;99.90;;;;;;5059962;28;19912;-60
2022/11/07 07:15:38;;;;;;;;;;;14.80;99.90;;;;;;5059613;28;19908;-60
2022/11/07 07:18:04;;;;;;;;;;;14.80;99.90;;;;;;5059762;28;19912;-60
2022/11/07 07:20:30;;;;;;;;;;;14.80;99.90;;;;;;5059446;28;20976;-60
2022/11/07 07:22:56;;;;;;;;;;;14.80;99.90;;;;;;5059496;28;19916;-60
2022/11/07 07:25:21;;;;;;;;;;;14.80;99.90;;;;;;5059344;28;19973;-60
2022/11/07 07:27:47;;;;;;;;;;;14.80;99.90;;;;;;5059560;28;19909;-60
2022/11/07 07:30:13;;;;;;;;;;;14.90;99.90;;;;;;5059589;28;19909;-60
2022/11/07 07:32:39;;;;;;;;;;;14.90;99.90;;;;;;5059304;28;19948;-60
2022/11/07 07:35:05;;;;;;;;;;;14.90;99.90;;;;;;5059700;28;20364;-60
2022/11/07 07:37:30;;;;;;;;;;;15.00;99.90;;;;;;5059261;28;19999;-59
2022/11/07 07:39:56;;;;;;;;;;;15.00;99.90;;;;;;5059594;28;19962;-60
2022/11/07 07:42:22;;;;;;;;;;;15.00;99.90;;;;;;5059256;28;19909;-59
2022/11/07 07:44:47;;;;;;;;;;;15.10;99.90;;;;;;5059380;28;19909;-60
2022/11/07 07:47:13;;;;;;;;;;;15.00;99.90;;;;;;5059231;28;19916;-59
2022/11/07 07:49:38;;;;;;;;;;;15.10;99.90;;;;;;5058772;28;19917;-59
2022/11/07 07:52:04;;;;;;;;;;;15.10;99.90;;;;;;5059281;28;20433;-59
2022/11/07 07:54:30;;;;;;;;;;;15.10;99.90;;;;;;5059311;28;19959;-59
2022/11/07 07:56:56;;;;;;;;;;;15.10;99.90;;;;;;5059622;28;20289;-59
2022/11/07 07:59:21;;;;;;;;;;;15.10;99.90;;;;;;5058506;28;19908;-59
2022/11/07 08:01:47;;;;;;;;;;;15.10;99.90;;;;;;5059153;28;19962;-59
2022/11/07 08:04:13;;;;;;;;;;;15.00;99.90;;;;;;5059153;28;20280;-59
2022/11/07 08:06:38;;;;;;;;;;;14.90;99.90;;;;;;5058664;28;19916;-59
2022/11/07 08:09:04;;;;;;;;;;;14.80;99.90;;;;;;5058332;28;19925;-60
2022/11/07 08:11:30;;;;;;;;;;;14.80;99.90;;;;;;5058494;28;19936;-59
2022/11/07 08:13:56;;;;;;;;;;;14.80;99.90;;;;;;5058940;28;19909;-59
2022/11/07 08:16:21;;;;;;;;;;;14.80;99.90;;;;;;5057628;28;19916;-59
2022/11/07 08:18:47;;;;;;;;;;;14.70;99.90;;;;;;5058747;28;20457;-59
2022/11/07 08:21:12;;;;;;;;;;;14.60;99.90;;;;;;5058417;28;19908;-59
2022/11/07 08:23:38;;;;;;;;;;;14.50;99.90;;;;;;5058788;28;19912;-59
2022/11/07 08:26:04;;;;;;;;;;;14.50;99.90;;;;;;5058467;28;19913;-59
2022/11/07 08:28:31;;;;;;;;;;;14.50;99.90;;;;;;5058453;28;19918;-60
2022/11/07 08:31:04;;;;;;;;;;;14.50;99.90;;;;;;5058336;28;19909;-60
2022/11/07 08:33:30;;;;;;;;;;;14.50;99.90;;;;;;5058092;28;19944;-59
2022/11/07 08:35:59;;;;;;;;;;;14.50;99.90;;;;;;5058635;28;19908;-59
2022/11/07 08:38:25;;;;;;;;;;;14.60;99.90;;;;;;5058073;28;20339;-59
2022/11/07 08:40:51;;;;;;;;;;;14.60;99.90;;;;;;5058391;28;20407;-60
2022/11/07 08:43:18;;;;;;;;;;;14.70;99.90;;;;;;5057750;28;19931;-59
2022/11/07 08:45:44;;;;;;;;;;;14.70;99.90;;;;;;5057827;28;19984;-59
2022/11/07 08:48:10;;;;;;;;;;;14.70;99.90;;;;;;5058187;28;19909;-59
2022/11/07 08:50:35;;;;;;;;;;;14.80;99.90;;;;;;5057720;28;19909;-60
2022/11/07 08:53:01;;;;;;;;;;;14.80;99.90;;;;;;5058222;28;19909;-59
2022/11/07 08:55:26;;;;;;;;;;;14.90;99.90;;;;;;5057688;28;20365;-59
2022/11/07 08:57:56;;;;;;;;;;;14.90;99.90;;;;;;5058057;28;20003;-59
2022/11/07 09:00:22;;;;;;;;;;;14.90;99.90;;;;;;5057802;28;19970;-59
2022/11/07 09:02:47;;;;;;;;;;;15.00;99.90;;;;;;5057589;28;19913;-59
2022/11/07 09:05:13;;;;;;;;;;;15.00;99.90;;;;;;5057580;28;19923;-59
2022/11/07 09:07:39;;;;;;;;;;;15.10;99.90;;;;;;5057615;28;19921;-59
2022/11/07 09:10:05;;;;;;;;;;;15.10;99.90;;;;;;5057221;28;20023;-59
2022/11/07 09:12:30;;;;;;;;;;;15.20;99.90;;;;;;5057320;28;19913;-59
2022/11/07 09:14:56;;;;;;;;;;;15.30;99.90;;;;;;5057694;28;19991;-59
2022/11/07 09:17:22;;;;;;;;;;;15.40;99.90;;;;;;5057489;28;19909;-59
2022/11/07 09:19:47;;;;;;;;;;;15.40;99.90;;;;;;5057927;28;19909;-59
2022/11/07 09:22:13;;;;;;;;;;;15.50;99.90;;;;;;5057379;28;19931;-59
2022/11/07 09:24:39;;;;;;;;;;;15.50;99.90;;;;;;5057466;28;19913;-59
2022/11/07 09:27:04;;;;;;;;;;;15.50;99.90;;;;;;5057541;28;19913;-59
2022/11/07 09:29:30;;;;;;;;;;;15.60;99.90;;;;;;5060997;28;19909;-60
2022/11/07 09:31:56;;;;;;;;;;;15.70;99.90;;;;;;5061865;28;19909;-60
2022/11/07 09:34:21;;;;;;;;;;;15.80;99.90;;;;;;5061155;28;19948;-60
2022/11/07 09:36:47;;;;;;;;;;;15.90;99.90;;;;;;5061261;28;20403;-59
2022/11/07 09:39:12;;;;;;;;;;;16.00;99.90;;;;;;5061405;28;19908;-59
2022/11/07 09:41:38;;;;;;;;;;;16.00;99.90;;;;;;5061361;28;19913;-59
2022/11/07 09:44:08;;;;;;;;;;;16.00;99.90;;;;;;5061297;28;19980;-60
2022/11/07 09:46:52;;;;;;;;;;;15.90;99.90;;;;;;5061321;28;19948;-59
2022/11/07 09:49:18;;;;;;;;;;;15.90;99.90;;;;;;5061505;28;19959;-59
2022/11/07 09:51:57;;;;;;;;;;;15.80;99.90;;;;;;5061313;28;19909;-59
2022/11/07 09:54:26;;;;;;;;;;;15.80;99.90;;;;;;5060998;28;20265;-59
2022/11/07 09:56:53;;;;;;;;;;;15.90;99.90;;;;;;5061392;28;19916;-59
2022/11/07 09:59:21;;;;;;;;;;;15.90;99.90;;;;;;5061085;28;19909;-59
2022/11/07 10:01:47;;;;;;;;;;;15.90;99.90;;;;;;5061218;28;19916;-59
2022/11/07 10:04:17;;;;;;;;;;;16.00;99.90;;;;;;5061448;28;19908;-59
2022/11/07 10:06:48;;;;;;;;;;;16.20;99.90;;;;;;5060983;28;19923;-59
2022/11/07 10:09:20;;;;;;;;;;;16.20;99.90;;;;;;5060089;28;19960;-59
2022/11/07 10:12:03;;;;;;;;;;;16.30;99.90;;;;;;5060415;28;20292;-60
2022/11/07 10:14:29;;;;;;;;;;;16.40;99.90;;;;;;5060605;28;19919;-59
2022/11/07 10:17:01;;;;;;;;;;;16.40;99.90;;;;;;5060186;28;19999;-59
2022/11/07 10:19:35;;;;;;;;;;;16.30;99.90;;;;;;5060373;28;19991;-59
2022/11/07 10:22:01;;;;;;;;;;;16.30;99.90;;;;;;5060431;28;19908;-60
2022/11/07 10:24:27;;;;;;;;;;;16.20;99.90;;;;;;5060683;28;19915;-60
2022/11/07 10:26:52;;;;;;;;;;;16.20;99.90;;;;;;5060662;28;19913;-59
2022/11/07 10:29:19;;;;;;;;;;;16.20;99.90;;;;;;5060838;28;20003;-60
2022/11/07 10:31:48;;;;;;;;;;;16.20;99.90;;;;;;5060710;28;19915;-60
2022/11/07 10:34:19;;;;;;;;;;;16.20;99.90;;;;;;5060545;28;19909;-60
2022/11/07 10:36:44;;;;;;;;;;;16.20;99.90;;;;;;5060726;28;20046;-60
2022/11/07 10:39:14;;;;;;;;;;;16.20;99.90;;;;;;5059856;28;19951;-60
2022/11/07 10:41:41;;;;;;;;;;;16.30;99.90;;;;;;5060349;28;20365;-60
2022/11/07 10:44:12;;;;;;;;;;;16.40;99.90;;;;;;5060510;28;19948;-60
2022/11/07 10:46:42;;;;;;;;;;;16.50;99.90;;;;;;5058735;28;19928;-60
2022/11/07 10:49:18;;;;;;;;;;;16.80;99.90;;;;;;5060673;28;19908;-60
2022/11/07 10:51:43;;;;;;;;;;;17.20;99.90;;;;;;5060761;28;19909;-60
2022/11/07 10:54:24;;;;;;;;;;;17.30;99.90;;;;;;5060672;28;19908;-60
2022/11/07 10:56:57;;;;;;;;;;;17.20;99.90;;;;;;5060556;28;19959;-60
2022/11/07 10:59:27;;;;;;;;;;;17.10;99.90;;;;;;5060287;28;19931;-60
2022/11/07 11:01:54;;;;;;;;;;;17.10;99.90;;;;;;5060261;28;20284;-60
2022/11/07 11:04:24;;;;;;;;;;;17.00;99.90;;;;;;5060118;28;19916;-60
2022/11/07 11:06:57;;;;;;;;;;;16.90;99.90;;;;;;5059946;28;19967;-60
2022/11/07 11:09:26;;;;;;;;;;;17.00;99.90;;;;;;5060013;28;20381;-60
2022/11/07 11:11:52;;;;;;;;;;;16.90;99.90;;;;;;5060073;28;19959;-60
2022/11/07 11:14:19;;;;;;;;;;;16.80;99.90;;;;;;5059860;28;19909;-60
2022/11/07 11:16:47;;;;;;;;;;;16.80;99.90;;;;;;5060184;28;19909;-59
2022/11/07 11:19:18;;;;;;;;;;;16.90;99.90;;;;;;5059762;28;20356;-60
2022/11/07 11:21:45;;;;;;;;;;;16.90;99.80;;;;;;5060102;28;19912;-60
2022/11/07 11:24:22;;;;;;;;;;;17.00;99.90;;;;;;5059838;28;19909;-59
2022/11/07 11:26:49;;;;;;;;;;;17.30;99.90;;;;;;5059757;28;19913;-59
2022/11/07 11:29:38;;;;;;;;;;;18.00;99.90;;;;;;5060149;28;19908;-60
2022/11/07 11:32:04;;;;;;;;;;;18.70;97.20;;;;;;5059717;28;19948;-60
2022/11/07 11:34:32;;;;;;;;;;;19.40;96.80;;;;;;5059813;28;19916;-60
2022/11/07 11:37:01;;;;;;;;;;;19.60;96.10;;;;;;5059505;28;19912;-59
2022/11/07 11:39:34;;;;;;;;;;;19.90;94.60;;;;;;5059309;28;19909;-59
2022/11/07 11:41:59;;;;;;;;;;;19.80;93.10;;;;;;5059463;28;19980;-59
2022/11/07 11:44:37;;;;;;;;;;;19.70;95.20;;;;;;5059905;28;20370;-59
2022/11/07 11:47:09;;;;;;;;;;;19.90;93.80;;;;;;5059269;28;20364;-59
2022/11/07 11:49:38;;;;;;;;;;;20.10;93.60;;;;;;5059316;28;20399;-59
2022/11/07 11:52:06;;;;;;;;;;;20.00;93.00;;;;;;5059458;28;19908;-60
2022/11/07 11:54:33;;;;;;;;;;;20.30;95.00;;;;;;5059449;28;19915;-60
2022/11/07 11:57:04;;;;;;;;;;;20.20;93.00;;;;;;5058966;28;20045;-60
2022/11/07 11:59:46;;;;;;;;;;;20.50;93.10;;;;;;5059110;28;19916;-60
2022/11/07 12:02:30;;;;;;;;;;;20.60;94.00;;;;;;5059495;28;19909;-60
2022/11/07 12:05:05;;;;;;;;;;;20.70;91.80;;;;;;5059128;28;19935;-60
2022/11/07 12:07:37;;;;;;;;;;;20.40;90.20;;;;;;5059375;28;19959;-60
2022/11/07 12:10:14;;;;;;;;;;;20.10;90.50;;;;;;5058611;28;19964;-59
2022/11/07 12:12:51;;;;;;;;;;;19.60;93.60;;;;;;5059073;28;19909;-59
2022/11/07 12:15:28;;;;;;;;;;;19.40;94.20;;;;;;5058840;28;19916;-59
2022/11/07 12:17:53;;;;;;;;;;;19.20;93.80;;;;;;5059023;28;19916;-59
2022/11/07 12:20:23;;;;;;;;;;;19.00;94.40;;;;;;5058916;28;19909;-59
2022/11/07 12:22:48;;;;;;;;;;;18.90;93.80;;;;;;5058944;28;19916;-59
2022/11/07 12:25:21;;;;;;;;;;;18.40;94.20;;;;;;5058565;28;19909;-59
2022/11/07 12:27:50;;;;;;;;;;;18.20;95.50;;;;;;5058530;28;19909;-59
2022/11/07 12:30:23;;;;;;;;;;;17.80;96.10;;;;;;5058728;28;20479;-59
2022/11/07 12:33:08;;;;;;;;;;;17.60;97.30;;;;;;5058541;28;20381;-59
2022/11/07 12:35:39;;;;;;;;;;;17.50;97.60;;;;;;5058522;28;19994;-59
2022/11/07 12:38:17;;;;;;;;;;;17.40;97.90;;;;;;5058502;28;19955;-59
2022/11/07 12:41:01;;;;;;;;;;;17.30;98.70;;;;;;5058390;28;19920;-59
2022/11/07 12:43:27;;;;;;;;;;;17.00;98.80;;;;;;5058844;28;19916;-59
2022/11/07 12:45:56;;;;;;;;;;;16.90;99.00;;;;;;5058437;28;19912;-59
2022/11/07 12:48:21;;;;;;;;;;;16.80;99.60;;;;;;5058252;28;19908;-59
2022/11/07 12:50:56;;;;;;;;;;;16.80;99.80;;;;;;5058507;28;19909;-59
2022/11/07 12:53:40;;;;;;;;;;;16.70;99.90;;;;;;5058634;28;19909;-59
2022/11/07 12:56:16;;;;;;;;;;;16.70;99.90;;;;;;5057819;28;19916;-59
2022/11/07 12:58:43;;;;;;;;;;;16.70;99.60;;;;;;5057760;28;19960;-59
2022/11/07 13:01:11;;;;;;;;;;;16.60;99.90;;;;;;5058040;28;19909;-59
2022/11/07 13:03:49;;;;;;;;;;;16.50;99.90;;;;;;5057517;28;20280;-59
2022/11/07 13:06:18;;;;;;;;;;;16.50;99.90;;;;;;5057748;28;19925;-59
2022/11/07 13:08:43;;;;;;;;;;;16.50;99.90;;;;;;5057573;28;19927;-59
2022/11/07 13:11:29;;;;;;;;;;;16.50;99.90;;;;;;5057855;28;20397;-59
2022/11/07 13:14:07;;;;;;;;;;;16.60;99.90;;;;;;5056749;28;19909;-59
2022/11/07 13:16:33;;;;;;;;;;;16.50;99.90;;;;;;5057579;28;19916;-59
2022/11/07 13:19:09;;;;;;;;;;;16.50;99.90;;;;;;5057822;28;19913;-59
2022/11/07 13:21:41;;;;;;;;;;;16.50;99.90;;;;;;5057707;28;19916;-59
2022/11/07 13:24:07;;;;;;;;;;;16.60;99.90;;;;;;5057512;28;19909;-59
2022/11/07 13:26:33;;;;;;;;;;;17.00;99.90;;;;;;5057477;28;19919;-59
2022/11/07 13:28:59;;;;;;;;;;;17.20;99.10;;;;;;5057442;28;20007;-59
2022/11/07 13:31:33;;;;;;;;;;;17.00;99.20;;;;;;5058020;28;19908;-59
2022/11/07 13:34:21;;;;;;;;;;;16.90;99.90;;;;;;5057380;28;19909;-59
2022/11/07 13:36:48;;;;;;;;;;;16.70;99.90;;;;;;5056943;28;19912;-59
2022/11/07 13:39:14;;;;;;;;;;;16.60;99.90;;;;;;5057579;28;19991;-58
2022/11/07 13:41:43;;;;;;;;;;;16.60;99.90;;;;;;5057540;28;19996;-58
2022/11/07 13:44:17;;;;;;;;;;;16.50;99.90;;;;;;5057152;28;19912;-54
2022/11/07 13:46:48;;;;;;;;;;;16.50;99.90;;;;;;5057224;28;20284;-58
2022/11/07 13:49:16;;;;;;;;;;;16.40;99.90;;;;;;5057331;28;19915;-57
2022/11/07 13:51:44;;;;;;;;;;;16.00;99.90;;;;;;5057579;28;19959;-57
2022/11/07 13:54:19;;;;;;;;;;;15.90;99.90;;;;;;5057234;28;20368;-57
2022/11/07 13:57:03;;;;;;;;;;;15.80;99.90;;;;;;5057511;28;19955;-57
2022/11/07 13:59:42;;;;;;;;;;;15.80;99.90;;;;;;5057714;28;19913;-58
2022/11/07 14:02:31;;;;;;;;;;;15.90;99.90;;;;;;5057248;28;20369;-57
2022/11/07 14:05:03;;;;;;;;;;;15.90;99.90;;;;;;5057044;28;19909;-57
2022/11/07 14:07:33;;;;;;;;;;;16.00;99.90;;;;;;5057414;28;19924;-55
2022/11/07 14:09:59;;;;;;;;;;;15.90;99.90;;;;;;5056702;28;20359;-56
2022/11/07 14:12:25;;;;;;;;;;;15.90;99.90;;;;;;5057729;28;19955;-58
2022/11/07 14:14:52;;;;;;;;;;;15.90;99.90;;;;;;5058089;28;20392;-55
2022/11/07 14:17:19;;;;;;;;;;;15.90;99.90;;;;;;5060840;28;19909;-57
2022/11/07 14:19:44;;;;;;;;;;;15.90;99.90;;;;;;5060887;28;19908;-58
2022/11/07 14:22:20;;;;;;;;;;;16.00;99.90;;;;;;5061223;28;19909;-58
2022/11/07 14:24:50;;;;;;;;;;;16.00;99.90;;;;;;5060775;28;19908;-58
2022/11/07 14:27:15;;;;;;;;;;;16.00;99.90;;;;;;5060553;28;20319;-57
2022/11/07 14:29:59;;;;;;;;;;;16.10;99.90;;;;;;5060842;28;19909;-57
2022/11/07 14:32:25;;;;;;;;;;;16.10;99.90;;;;;;5060627;28;19908;-58
2022/11/07 14:34:52;;;;;;;;;;;16.20;99.90;;;;;;5060514;28;19916;-57